Time;durP1;ratioP1;P1;durP2;ratioP2;P2;SDS_P1;SDS_P2;PMS_P1;PMS_P2;Temp;Humidity;BMP_temperature;BMP_pressure;BME280_temperature;BME280_humidity;BME280_pressure;Samples;Min_cycle;Max_cycle;Signal;HPM_P1;HPM_P2
2023/11/01 00:01:53;;;;;;;4.23;3.03;;;11.80;99.90;;;;;;4909363;29;20473;-77
2023/11/01 00:04:19;;;;;;;5.53;3.30;;;11.80;99.90;;;;;;4929494;29;20193;-78
2023/11/01 00:06:45;;;;;;;6.20;3.50;;;11.80;99.90;;;;;;4915102;29;20199;-77
2023/11/01 00:09:10;;;;;;;5.50;3.67;;;11.90;99.90;;;;;;4934488;29;20222;-78
2023/11/01 00:11:36;;;;;;;5.80;3.47;;;11.90;99.90;;;;;;4952016;29;20603;-76
2023/11/01 00:14:02;;;;;;;5.30;3.60;;;11.90;99.90;;;;;;4952710;29;20585;-76
2023/11/01 00:16:28;;;;;;;6.07;3.47;;;11.90;99.90;;;;;;4907369;29;20197;-80
2023/11/01 00:18:54;;;;;;;5.23;3.20;;;11.90;99.90;;;;;;4906150;29;20434;-76
2023/11/01 00:21:20;;;;;;;4.93;3.33;;;11.90;99.90;;;;;;4918972;29;20209;-76
2023/11/01 00:23:46;;;;;;;6.80;4.10;;;11.90;99.90;;;;;;4902948;29;20451;-76
2023/11/01 00:26:12;;;;;;;6.90;4.60;;;11.90;99.90;;;;;;4932242;29;20444;-76
2023/11/01 00:28:38;;;;;;;9.23;5.03;;;11.90;99.90;;;;;;4908141;29;20201;-77
2023/11/01 00:31:04;;;;;;;8.97;5.00;;;11.90;99.90;;;;;;4931703;29;20433;-77
2023/11/01 00:33:30;;;;;;;5.50;3.40;;;11.90;99.90;;;;;;4939018;29;20266;-76
2023/11/01 00:35:55;;;;;;;6.07;3.50;;;11.80;99.90;;;;;;4918273;29;20261;-77
2023/11/01 00:38:21;;;;;;;5.47;2.60;;;11.80;99.90;;;;;;4921098;29;20198;-76
2023/11/01 00:40:47;;;;;;;11.83;3.83;;;11.80;99.90;;;;;;4908729;29;20207;-76
2023/11/01 00:43:13;;;;;;;6.47;2.50;;;11.80;99.90;;;;;;4910890;29;20222;-75
2023/11/01 00:45:38;;;;;;;6.13;3.00;;;11.80;99.90;;;;;;4909134;29;20478;-75
2023/11/01 00:48:05;;;;;;;8.63;3.30;;;11.80;99.90;;;;;;4925390;29;20174;-76
2023/11/01 00:50:31;;;;;;;5.33;2.93;;;11.70;99.90;;;;;;4934941;29;20462;-77
2023/11/01 00:52:56;;;;;;;6.20;3.67;;;11.70;99.90;;;;;;4937155;29;20424;-76
2023/11/01 00:55:22;;;;;;;7.13;4.83;;;11.70;99.90;;;;;;4924493;29;20229;-77
2023/11/01 00:57:48;;;;;;;10.47;5.27;;;11.60;99.90;;;;;;4903536;29;20320;-77
2023/11/01 01:00:15;;;;;;;8.47;4.83;;;11.60;99.90;;;;;;4933604;29;20241;-79
2023/11/01 01:02:42;;;;;;;9.70;5.30;;;11.50;99.90;;;;;;4936967;29;20557;-79
2023/11/01 01:05:08;;;;;;;10.03;4.03;;;11.50;99.90;;;;;;4917778;29;20775;-78
2023/11/01 01:07:34;;;;;;;7.30;4.23;;;11.40;99.90;;;;;;4931626;29;20420;-77
2023/11/01 01:10:01;;;;;;;8.37;4.40;;;11.40;99.90;;;;;;4910094;29;20187;-78
2023/11/01 01:12:26;;;;;;;5.57;3.50;;;11.30;99.90;;;;;;4909436;29;20421;-76
2023/11/01 01:14:52;;;;;;;6.23;3.77;;;11.30;99.90;;;;;;4918447;29;20448;-76
2023/11/01 01:17:18;;;;;;;4.23;3.80;;;11.20;99.90;;;;;;4942317;29;20186;-76
2023/11/01 01:19:43;;;;;;;6.03;3.50;;;11.20;99.90;;;;;;4930652;29;20180;-76
2023/11/01 01:22:09;;;;;;;8.00;3.53;;;11.10;99.90;;;;;;4905733;29;20272;-77
2023/11/01 01:24:35;;;;;;;4.20;3.30;;;11.10;99.90;;;;;;4931951;29;20205;-77
2023/11/01 01:27:00;;;;;;;4.63;3.13;;;11.10;99.90;;;;;;4924374;29;20298;-76
2023/11/01 01:29:26;;;;;;;4.93;3.27;;;11.10;99.90;;;;;;4946748;29;20203;-75
2023/11/01 01:31:52;;;;;;;4.13;3.00;;;11.10;99.90;;;;;;4941448;29;20183;-74
2023/11/01 01:34:17;;;;;;;6.77;3.30;;;11.10;99.90;;;;;;4929962;29;20447;-75
2023/11/01 01:36:44;;;;;;;4.63;2.93;;;11.20;99.90;;;;;;4935008;29;20198;-76
2023/11/01 01:39:09;;;;;;;6.43;2.60;;;11.10;99.90;;;;;;4915546;29;20494;-75
2023/11/01 01:41:35;;;;;;;4.23;2.30;;;11.10;99.90;;;;;;4914363;29;20437;-75
2023/11/01 01:44:01;;;;;;;4.80;2.50;;;11.10;99.90;;;;;;4935489;29;20258;-76
2023/11/01 01:46:32;;;;;;;3.10;2.27;;;11.10;99.90;;;;;;4923715;29;20202;-76
2023/11/01 01:48:58;;;;;;;3.57;2.53;;;11.10;99.90;;;;;;4914514;29;20315;-76
2023/11/01 01:51:24;;;;;;;2.93;1.90;;;11.20;99.90;;;;;;4925677;29;20512;-77
2023/11/01 01:53:52;;;;;;;4.47;2.70;;;11.10;99.90;;;;;;4926498;29;20456;-77
2023/11/01 01:56:18;;;;;;;4.37;2.43;;;11.10;99.90;;;;;;4906598;29;20930;-74
2023/11/01 01:58:45;;;;;;;4.00;2.00;;;11.20;99.90;;;;;;4932637;29;20462;-75
2023/11/01 02:01:13;;;;;;;5.80;2.93;;;11.20;99.90;;;;;;4932800;29;20422;-75
2023/11/01 02:03:39;;;;;;;5.50;3.17;;;11.20;99.90;;;;;;4924300;29;20559;-76
2023/11/01 02:06:06;;;;;;;7.33;2.77;;;11.10;99.90;;;;;;4921155;29;20483;-76
2023/11/01 02:08:32;;;;;;;5.37;3.17;;;11.10;99.90;;;;;;4920694;29;20187;-77
2023/11/01 02:10:58;;;;;;;7.70;3.10;;;11.10;99.90;;;;;;4912335;29;20427;-75
2023/11/01 02:13:24;;;;;;;6.73;3.53;;;11.10;99.90;;;;;;4937806;29;20421;-76
2023/11/01 02:15:50;;;;;;;4.00;2.60;;;11.10;99.90;;;;;;4920849;29;20472;-76
2023/11/01 02:18:16;;;;;;;8.33;3.27;;;11.10;99.90;;;;;;4901198;29;20192;-76
2023/11/01 02:20:47;;;;;;;7.50;3.50;;;11.10;99.90;;;;;;4935781;29;20249;-75
2023/11/01 02:23:16;;;;;;;8.33;4.00;;;11.10;99.90;;;;;;4946454;29;20221;-76
2023/11/01 02:25:42;;;;;;;7.80;3.73;;;11.10;99.90;;;;;;4926706;29;20430;-76
2023/11/01 02:28:11;;;;;;;8.30;4.10;;;11.10;99.90;;;;;;4913618;29;20441;-75
2023/11/01 02:30:39;;;;;;;4.37;3.60;;;11.10;99.90;;;;;;4910416;29;20533;-76
2023/11/01 02:33:05;;;;;;;4.53;3.03;;;11.20;99.90;;;;;;4902926;29;20451;-75
2023/11/01 02:35:31;;;;;;;6.30;2.73;;;11.20;99.90;;;;;;4911693;29;20459;-76
2023/11/01 02:37:57;;;;;;;4.03;2.80;;;11.20;99.90;;;;;;4926025;29;20826;-74
2023/11/01 02:40:22;;;;;;;3.67;2.50;;;11.20;99.90;;;;;;4910704;29;20186;-75
2023/11/01 02:42:51;;;;;;;3.63;2.33;;;11.20;99.90;;;;;;4945864;29;20222;-76
2023/11/01 02:45:17;;;;;;;4.20;2.90;;;11.20;99.90;;;;;;4937291;29;20447;-75
2023/11/01 02:47:44;;;;;;;4.90;2.73;;;11.20;99.90;;;;;;4927933;29;20451;-76
2023/11/01 02:50:12;;;;;;;3.33;2.73;;;11.20;99.90;;;;;;4942851;29;20422;-74
2023/11/01 02:52:38;;;;;;;5.13;2.83;;;11.20;99.90;;;;;;4943686;29;20455;-74
2023/11/01 02:55:09;;;;;;;5.20;3.63;;;11.30;99.90;;;;;;4913537;29;20538;-78
2023/11/01 02:57:36;;;;;;;2.90;2.33;;;11.30;99.90;;;;;;4895213;29;20497;-76
2023/11/01 03:00:06;;;;;;;5.20;2.57;;;11.30;99.90;;;;;;4920493;29;20439;-77
2023/11/01 03:02:33;;;;;;;6.93;2.60;;;11.30;99.90;;;;;;4914949;29;20540;-76
2023/11/01 03:04:58;;;;;;;3.67;2.60;;;11.30;99.90;;;;;;4921015;29;20456;-75
2023/11/01 03:07:24;;;;;;;5.73;2.57;;;11.30;99.90;;;;;;4908493;29;20499;-76
2023/11/01 03:09:50;;;;;;;4.70;2.70;;;11.30;99.90;;;;;;4921844;29;20192;-75
2023/11/01 03:12:15;;;;;;;5.93;2.83;;;11.30;99.90;;;;;;4916502;29;20502;-74
2023/11/01 03:14:41;;;;;;;6.80;2.50;;;11.30;99.90;;;;;;4935740;29;20213;-74
2023/11/01 03:17:08;;;;;;;3.00;2.23;;;11.20;99.90;;;;;;4930196;29;20423;-73
2023/11/01 03:19:34;;;;;;;3.40;1.83;;;11.20;99.90;;;;;;4921429;29;20211;-75
2023/11/01 03:22:00;;;;;;;2.73;1.80;;;11.10;99.90;;;;;;4916384;29;20783;-74
2023/11/01 03:24:26;;;;;;;5.17;2.33;;;11.10;99.90;;;;;;4924559;29;20244;-74
2023/11/01 03:26:51;;;;;;;4.17;2.80;;;11.10;99.90;;;;;;4927822;29;20198;-73
2023/11/01 03:29:17;;;;;;;4.70;2.40;;;11.00;99.90;;;;;;4913384;29;20182;-74
2023/11/01 03:31:43;;;;;;;3.50;2.30;;;11.00;99.90;;;;;;4909507;29;20424;-75
2023/11/01 03:34:10;;;;;;;2.80;2.60;;;11.00;99.90;;;;;;4918434;29;20196;-72
2023/11/01 03:36:37;;;;;;;3.13;2.23;;;11.00;99.90;;;;;;4942343;29;20442;-78
2023/11/01 03:39:06;;;;;;;4.27;2.33;;;10.90;99.90;;;;;;4924910;29;21007;-74
2023/11/01 03:41:31;;;;;;;3.30;1.90;;;10.90;99.90;;;;;;4914143;29;20446;-74
2023/11/01 03:43:59;;;;;;;4.00;1.80;;;10.90;99.90;;;;;;4899657;29;20522;-76
2023/11/01 03:46:24;;;;;;;2.53;1.33;;;10.90;99.90;;;;;;4918024;29;20210;-75
2023/11/01 03:48:50;;;;;;;2.00;1.43;;;10.90;99.90;;;;;;4933130;29;20937;-75
2023/11/01 03:51:16;;;;;;;1.73;1.30;;;10.90;99.90;;;;;;4944007;29;20188;-78
2023/11/01 03:53:41;;;;;;;2.10;1.40;;;10.90;99.90;;;;;;4931120;29;20190;-74
2023/11/01 03:56:07;;;;;;;1.60;1.17;;;10.90;99.90;;;;;;4931673;29;20208;-74
2023/11/01 03:58:33;;;;;;;1.80;1.27;;;10.90;99.90;;;;;;4906443;29;20256;-75
2023/11/01 04:00:59;;;;;;;1.73;1.10;;;10.90;99.90;;;;;;4932813;29;20481;-74
2023/11/01 04:03:26;;;;;;;1.20;1.00;;;10.90;99.90;;;;;;4917259;29;20547;-74
2023/11/01 04:05:53;;;;;;;1.10;0.90;;;10.90;99.90;;;;;;4941064;29;20469;-74
2023/11/01 04:08:18;;;;;;;1.20;0.90;;;10.90;99.90;;;;;;4921567;29;20453;-75
2023/11/01 04:10:45;;;;;;;1.30;1.00;;;10.90;99.90;;;;;;4928591;29;20435;-74
2023/11/01 04:13:11;;;;;;;1.10;0.90;;;10.90;99.90;;;;;;4935875;29;20201;-74
2023/11/01 04:15:36;;;;;;;1.10;0.80;;;10.90;99.90;;;;;;4935203;29;20460;-75
2023/11/01 04:18:02;;;;;;;0.90;0.70;;;10.90;99.90;;;;;;4940882;29;20457;-73
2023/11/01 04:20:28;;;;;;;1.10;0.87;;;10.90;99.90;;;;;;4931628;29;20202;-76
2023/11/01 04:22:53;;;;;;;2.43;1.10;;;10.90;99.90;;;;;;4915623;29;20208;-75
2023/11/01 04:25:19;;;;;;;1.10;0.80;;;10.90;99.90;;;;;;4915152;29;20213;-76
2023/11/01 04:27:44;;;;;;;1.00;0.90;;;10.90;99.90;;;;;;4940384;29;20578;-75
2023/11/01 04:30:12;;;;;;;1.00;0.73;;;10.90;99.90;;;;;;4924954;29;20208;-73
2023/11/01 04:32:38;;;;;;;1.10;0.80;;;10.90;99.90;;;;;;4908528;29;20211;-74
2023/11/01 04:35:09;;;;;;;1.47;0.70;;;10.90;99.90;;;;;;4921233;29;20482;-73
2023/11/01 04:37:38;;;;;;;1.00;0.90;;;10.90;99.90;;;;;;4934406;29;20441;-74
2023/11/01 04:40:08;;;;;;;1.30;0.83;;;10.90;99.90;;;;;;4917811;29;20435;-78
2023/11/01 04:42:38;;;;;;;1.60;1.00;;;10.90;99.90;;;;;;4941607;29;20466;-75
2023/11/01 04:45:06;;;;;;;0.97;0.87;;;10.90;99.90;;;;;;4930854;29;20479;-74
2023/11/01 04:47:34;;;;;;;1.20;0.70;;;10.90;99.90;;;;;;4923902;29;20430;-74
2023/11/01 04:50:00;;;;;;;1.70;0.80;;;10.90;99.90;;;;;;4908434;29;20418;-73
2023/11/01 04:52:26;;;;;;;0.80;0.70;;;10.90;99.90;;;;;;4918234;29;20453;-73
2023/11/01 04:54:51;;;;;;;1.20;1.00;;;10.90;99.90;;;;;;4918368;29;20478;-75
2023/11/01 04:57:17;;;;;;;0.83;0.67;;;10.90;99.90;;;;;;4894045;29;20191;-73
2023/11/01 04:59:42;;;;;;;1.00;0.70;;;10.90;99.90;;;;;;4917869;29;20232;-76
2023/11/01 05:02:08;;;;;;;1.30;0.90;;;10.90;99.90;;;;;;4936273;29;20237;-73
2023/11/01 05:04:35;;;;;;;1.37;0.90;;;10.90;99.90;;;;;;4943422;29;20266;-74
2023/11/01 05:07:00;;;;;;;1.10;0.87;;;10.90;99.90;;;;;;4924337;29;20222;-74
2023/11/01 05:09:26;;;;;;;1.10;0.80;;;10.90;99.90;;;;;;4923720;29;20409;-73
2023/11/01 05:11:51;;;;;;;0.90;0.70;;;10.90;99.90;;;;;;4927882;29;20529;-75
2023/11/01 05:14:18;;;;;;;0.80;0.60;;;10.90;99.90;;;;;;4941646;29;20203;-75
2023/11/01 05:16:44;;;;;;;1.30;0.90;;;10.90;99.90;;;;;;4935338;29;20614;-73
2023/11/01 05:19:10;;;;;;;1.57;0.80;;;10.90;99.90;;;;;;4933683;29;20431;-73
2023/11/01 05:21:37;;;;;;;1.60;1.00;;;10.90;99.90;;;;;;4915387;29;20454;-72
2023/11/01 05:24:06;;;;;;;1.00;0.90;;;10.90;99.90;;;;;;4939971;29;20197;-74
2023/11/01 05:26:34;;;;;;;1.20;0.90;;;10.90;99.90;;;;;;4928607;29;20561;-75
2023/11/01 05:29:00;;;;;;;1.00;0.80;;;10.90;99.90;;;;;;4931805;29;20422;-73
2023/11/01 05:31:26;;;;;;;1.10;1.00;;;10.90;99.90;;;;;;4909077;29;20854;-73
2023/11/01 05:33:53;;;;;;;1.40;0.80;;;10.80;99.90;;;;;;4933362;29;20514;-74
2023/11/01 05:36:18;;;;;;;1.63;0.90;;;10.80;99.90;;;;;;4931964;29;20502;-74
2023/11/01 05:38:44;;;;;;;1.23;1.00;;;10.70;99.90;;;;;;4899646;29;20424;-72
2023/11/01 05:41:10;;;;;;;1.00;0.70;;;10.70;99.90;;;;;;4935562;29;20269;-75
2023/11/01 05:43:39;;;;;;;1.00;0.77;;;10.70;99.90;;;;;;4935803;29;20309;-74
2023/11/01 05:46:05;;;;;;;1.00;0.90;;;10.70;99.90;;;;;;4910148;29;20213;-73
2023/11/01 05:48:32;;;;;;;0.93;0.70;;;10.70;99.90;;;;;;4927716;29;20418;-74
2023/11/01 05:51:01;;;;;;;1.20;0.80;;;10.70;99.90;;;;;;4941853;29;20453;-74
2023/11/01 05:53:26;;;;;;;1.10;0.80;;;10.80;99.90;;;;;;4931468;29;20717;-73
2023/11/01 05:55:53;;;;;;;1.40;0.80;;;10.80;99.90;;;;;;4931185;29;20450;-73
2023/11/01 05:58:19;;;;;;;1.10;0.80;;;10.80;99.90;;;;;;4940487;29;20289;-74
2023/11/01 06:00:47;;;;;;;1.17;0.83;;;10.80;99.90;;;;;;4935415;29;20422;-74
2023/11/01 06:03:13;;;;;;;1.00;0.70;;;10.80;99.90;;;;;;4941307;29;20489;-74
2023/11/01 06:05:38;;;;;;;1.07;0.80;;;10.70;99.90;;;;;;4941101;29;20478;-74
2023/11/01 06:08:11;;;;;;;0.80;0.60;;;10.70;99.90;;;;;;4932382;29;20686;-77
2023/11/01 06:10:37;;;;;;;1.07;0.77;;;10.70;99.90;;;;;;4942791;29;20543;-73
2023/11/01 06:13:04;;;;;;;1.10;0.70;;;10.70;99.90;;;;;;4935371;29;20441;-73
2023/11/01 06:15:29;;;;;;;1.07;0.90;;;10.60;99.90;;;;;;4946604;29;20449;-73
2023/11/01 06:17:56;;;;;;;1.00;0.70;;;10.60;99.90;;;;;;4942918;29;20709;-73
2023/11/01 06:20:22;;;;;;;1.30;0.70;;;10.60;99.90;;;;;;4930816;29;20587;-74
2023/11/01 06:22:48;;;;;;;1.20;0.70;;;10.60;99.90;;;;;;4930929;29;20478;-74
2023/11/01 06:25:16;;;;;;;0.80;0.60;;;10.70;99.90;;;;;;4940667;29;20852;-74
2023/11/01 06:27:42;;;;;;;1.17;0.80;;;10.70;99.90;;;;;;4941252;29;20628;-74
2023/11/01 06:30:08;;;;;;;1.33;0.90;;;10.70;99.90;;;;;;4931253;29;20785;-74
2023/11/01 06:32:37;;;;;;;1.10;0.80;;;10.70;99.90;;;;;;4931553;29;20190;-74
2023/11/01 06:35:03;;;;;;;1.10;0.70;;;10.70;99.90;;;;;;4930241;29;20450;-73
2023/11/01 06:37:29;;;;;;;1.20;0.90;;;10.60;99.90;;;;;;4921098;29;20447;-74
2023/11/01 06:39:55;;;;;;;1.00;0.80;;;10.60;99.90;;;;;;4912011;29;20412;-73
2023/11/01 06:42:20;;;;;;;1.20;0.90;;;10.60;99.90;;;;;;4922944;29;20233;-73
2023/11/01 06:44:46;;;;;;;1.10;0.80;;;10.70;99.90;;;;;;4934864;29;20245;-74
2023/11/01 06:47:11;;;;;;;1.00;0.70;;;10.70;99.90;;;;;;4935590;29;20183;-74
2023/11/01 06:49:40;;;;;;;1.40;0.90;;;10.80;99.90;;;;;;4931194;29;20178;-74
2023/11/01 06:52:06;;;;;;;0.90;0.70;;;10.80;99.90;;;;;;4930521;29;20190;-74
2023/11/01 06:54:32;;;;;;;0.90;0.67;;;10.90;99.90;;;;;;4930885;29;20552;-74
2023/11/01 06:56:58;;;;;;;1.10;0.90;;;10.90;99.90;;;;;;4909652;29;20457;-74
2023/11/01 06:59:23;;;;;;;1.00;0.70;;;11.00;99.90;;;;;;4928775;29;20526;-75
2023/11/01 07:01:49;;;;;;;1.00;0.70;;;11.00;99.90;;;;;;4927309;29;20402;-72
2023/11/01 07:04:15;;;;;;;2.20;0.90;;;11.00;99.90;;;;;;4940638;29;20179;-74
2023/11/01 07:06:43;;;;;;;0.70;0.60;;;11.10;99.90;;;;;;4925710;29;20273;-73
2023/11/01 07:09:10;;;;;;;1.30;0.90;;;11.10;99.90;;;;;;4926451;29;20200;-75
2023/11/01 07:11:36;;;;;;;1.10;0.70;;;11.10;99.90;;;;;;4925405;29;20449;-72
2023/11/01 07:14:04;;;;;;;1.30;0.80;;;11.10;99.90;;;;;;4924409;29;20533;-75
2023/11/01 07:16:31;;;;;;;1.60;0.80;;;11.20;99.90;;;;;;4919834;29;20420;-74
2023/11/01 07:18:58;;;;;;;1.53;0.77;;;11.20;99.90;;;;;;4940673;29;20468;-75
2023/11/01 07:21:24;;;;;;;0.97;0.80;;;11.20;99.90;;;;;;4928847;29;20421;-75
2023/11/01 07:23:50;;;;;;;1.30;0.83;;;11.30;99.90;;;;;;4924547;29;20479;-72
2023/11/01 07:26:16;;;;;;;1.00;0.73;;;11.30;99.90;;;;;;4908150;29;20660;-75
2023/11/01 07:28:41;;;;;;;1.27;0.80;;;11.30;99.90;;;;;;4924481;29;20212;-74
2023/11/01 07:31:07;;;;;;;0.97;0.73;;;11.40;99.90;;;;;;4938898;29;20414;-75
2023/11/01 07:33:33;;;;;;;1.33;0.70;;;11.40;99.90;;;;;;4912049;29;20195;-74
2023/11/01 07:35:58;;;;;;;1.17;0.80;;;11.40;99.90;;;;;;4933038;29;20225;-73
2023/11/01 07:38:24;;;;;;;1.00;0.80;;;11.40;99.90;;;;;;4922539;29;20529;-74
2023/11/01 07:40:50;;;;;;;1.97;0.70;;;11.40;99.90;;;;;;4939533;29;20186;-74
2023/11/01 07:43:15;;;;;;;1.00;0.80;;;11.50;99.90;;;;;;4922051;29;20200;-73
2023/11/01 07:45:41;;;;;;;1.50;0.70;;;11.50;99.90;;;;;;4921976;29;20297;-73
2023/11/01 07:48:07;;;;;;;1.00;0.60;;;11.60;99.90;;;;;;4931548;29;20265;-73
2023/11/01 07:50:32;;;;;;;0.90;0.60;;;11.60;99.90;;;;;;4931932;29;20198;-75
2023/11/01 07:52:58;;;;;;;1.07;0.73;;;11.60;99.90;;;;;;4929889;29;20192;-73
2023/11/01 07:55:23;;;;;;;1.30;0.90;;;11.70;99.90;;;;;;4931613;29;20307;-74
2023/11/01 07:57:49;;;;;;;0.80;0.70;;;11.70;99.90;;;;;;4934002;29;20238;-74
2023/11/01 08:00:15;;;;;;;0.80;0.70;;;11.70;99.90;;;;;;4924141;29;20185;-73
2023/11/01 08:02:41;;;;;;;1.17;0.80;;;11.70;99.90;;;;;;4915459;29;20211;-73
2023/11/01 08:05:07;;;;;;;1.10;0.90;;;11.80;99.90;;;;;;4933496;29;20444;-75
2023/11/01 08:07:33;;;;;;;0.90;0.70;;;11.80;99.90;;;;;;4922957;29;20196;-75
2023/11/01 08:10:01;;;;;;;1.00;0.80;;;11.90;99.90;;;;;;4917059;29;20196;-75
2023/11/01 08:12:26;;;;;;;1.10;0.80;;;11.90;99.90;;;;;;4937450;29;20426;-76
2023/11/01 08:14:52;;;;;;;1.90;0.90;;;11.90;99.90;;;;;;4919542;29;20931;-75
2023/11/01 08:17:18;;;;;;;2.33;1.03;;;11.90;99.90;;;;;;4925217;29;20578;-73
2023/11/01 08:19:44;;;;;;;2.33;0.97;;;11.80;99.90;;;;;;4930838;29;20423;-75
2023/11/01 08:22:12;;;;;;;1.00;0.77;;;11.80;99.90;;;;;;4930260;29;20235;-75
2023/11/01 08:24:38;;;;;;;2.13;1.00;;;11.80;99.90;;;;;;4930898;29;20304;-73
2023/11/01 08:27:04;;;;;;;1.50;1.10;;;11.90;99.90;;;;;;4944799;29;20441;-76
2023/11/01 08:29:31;;;;;;;1.90;1.30;;;11.90;99.90;;;;;;4933813;29;20923;-74
2023/11/01 08:31:56;;;;;;;1.20;1.00;;;11.90;99.90;;;;;;4925813;29;20407;-75
2023/11/01 08:34:22;;;;;;;1.10;0.90;;;11.90;99.90;;;;;;4920142;29;20605;-74
2023/11/01 08:36:49;;;;;;;1.70;0.90;;;11.90;99.90;;;;;;4936640;29;20895;-74
2023/11/01 08:39:15;;;;;;;1.90;1.17;;;11.90;99.90;;;;;;4949174;29;20191;-75
2023/11/01 08:41:40;;;;;;;1.00;0.80;;;12.00;99.90;;;;;;4941961;29;20991;-73
2023/11/01 08:44:06;;;;;;;2.20;1.70;;;12.10;99.90;;;;;;4928640;29;20637;-75
2023/11/01 08:46:31;;;;;;;2.27;2.07;;;12.10;99.90;;;;;;4918303;29;20277;-73
2023/11/01 08:48:57;;;;;;;1.20;0.97;;;12.20;99.90;;;;;;4939329;29;20217;-76
2023/11/01 08:51:23;;;;;;;1.33;1.13;;;12.20;99.90;;;;;;4933721;29;20186;-75
2023/11/01 08:53:48;;;;;;;1.93;1.10;;;12.30;99.90;;;;;;4949621;29;20205;-74
2023/11/01 08:56:14;;;;;;;2.93;1.67;;;12.40;99.90;;;;;;4944054;29;20206;-75
2023/11/01 08:58:40;;;;;;;2.03;0.97;;;12.40;99.90;;;;;;4947188;29;20251;-71
2023/11/01 09:01:05;;;;;;;1.10;0.97;;;12.50;99.90;;;;;;4936607;29;20194;-74
2023/11/01 09:03:31;;;;;;;2.83;1.30;;;12.60;99.90;;;;;;4917648;29;20268;-75
2023/11/01 09:05:56;;;;;;;1.83;1.00;;;12.60;99.90;;;;;;4927786;29;20565;-74
2023/11/01 09:08:24;;;;;;;1.30;1.10;;;12.70;99.90;;;;;;4934143;29;20267;-74
2023/11/01 09:10:49;;;;;;;1.40;1.00;;;12.70;99.90;;;;;;4936294;29;20193;-76
2023/11/01 09:13:15;;;;;;;1.23;1.10;;;12.80;99.90;;;;;;4944604;29;20433;-74
2023/11/01 09:15:41;;;;;;;1.53;1.10;;;12.90;99.90;;;;;;4947254;29;20244;-74
2023/11/01 09:18:07;;;;;;;1.40;1.30;;;12.90;99.90;;;;;;4916262;29;20210;-75
2023/11/01 09:20:32;;;;;;;1.60;1.20;;;12.90;99.90;;;;;;4917116;29;20205;-73
2023/11/01 09:22:58;;;;;;;4.83;1.63;;;12.80;99.90;;;;;;4924328;29;20201;-74
2023/11/01 09:25:27;;;;;;;3.80;1.50;;;12.70;99.90;;;;;;4933217;29;20213;-75
2023/11/01 09:27:52;;;;;;;5.17;1.60;;;12.60;99.90;;;;;;4945618;29;20429;-76
2023/11/01 09:30:18;;;;;;;3.63;1.60;;;12.50;99.90;;;;;;4922084;29;20421;-75
2023/11/01 09:32:44;;;;;;;4.90;1.40;;;12.40;99.90;;;;;;4938933;29;20205;-79
2023/11/01 09:35:11;;;;;;;3.77;1.33;;;12.40;99.90;;;;;;4933902;29;20210;-75
2023/11/01 09:37:37;;;;;;;5.53;2.17;;;12.40;99.90;;;;;;4931548;29;20182;-76
2023/11/01 09:40:04;;;;;;;10.63;1.80;;;12.40;99.90;;;;;;4918395;29;20420;-75
2023/11/01 09:42:30;;;;;;;3.87;2.00;;;12.40;99.90;;;;;;4913491;29;20462;-75
2023/11/01 09:44:57;;;;;;;4.40;2.10;;;12.40;99.90;;;;;;4914568;29;20451;-73
2023/11/01 09:47:27;;;;;;;2.90;1.97;;;12.50;99.90;;;;;;4926581;29;20226;-73
2023/11/01 09:49:56;;;;;;;4.07;2.03;;;12.50;99.90;;;;;;4933363;29;20423;-75
2023/11/01 09:52:22;;;;;;;3.93;1.70;;;12.60;99.90;;;;;;4935979;29;20420;-73
2023/11/01 09:54:48;;;;;;;6.20;2.00;;;12.60;99.90;;;;;;4937178;29;20769;-75
2023/11/01 09:57:15;;;;;;;2.33;1.50;;;12.60;99.90;;;;;;4934911;29;20432;-75
2023/11/01 09:59:41;;;;;;;3.20;1.70;;;12.70;99.90;;;;;;4911569;29;20453;-75
2023/11/01 10:02:09;;;;;;;4.60;1.60;;;12.80;99.90;;;;;;4921830;29;20470;-75
2023/11/01 10:04:35;;;;;;;9.80;2.60;;;12.80;99.90;;;;;;4946339;29;20442;-76
2023/11/01 10:07:01;;;;;;;2.60;1.80;;;12.90;99.90;;;;;;4946831;29;20430;-74
2023/11/01 10:09:28;;;;;;;3.60;2.10;;;12.90;99.90;;;;;;4930150;29;20221;-80
2023/11/01 10:11:56;;;;;;;2.90;1.50;;;12.90;99.90;;;;;;4907057;29;20277;-78
2023/11/01 10:14:27;;;;;;;3.63;1.90;;;13.00;99.90;;;;;;4919934;29;20441;-75
2023/11/01 10:16:52;;;;;;;4.57;1.90;;;13.00;99.90;;;;;;4908223;29;20502;-77
2023/11/01 10:19:18;;;;;;;6.60;2.27;;;12.90;99.90;;;;;;4940690;29;20641;-73
2023/11/01 10:21:43;;;;;;;11.07;2.17;;;12.90;99.90;;;;;;4927579;29;20198;-77
2023/11/01 10:24:09;;;;;;;2.80;1.60;;;12.90;99.90;;;;;;4936570;29;20189;-77
2023/11/01 10:26:35;;;;;;;4.40;1.80;;;12.90;99.90;;;;;;4926787;29;20413;-73
2023/11/01 10:29:02;;;;;;;4.03;2.17;;;13.00;99.90;;;;;;4919978;29;20269;-74
2023/11/01 10:31:28;;;;;;;4.53;2.10;;;13.00;99.90;;;;;;4926838;29;20226;-75
2023/11/01 10:33:54;;;;;;;3.47;1.73;;;13.00;99.90;;;;;;4910754;29;20418;-74
2023/11/01 10:36:20;;;;;;;7.10;2.10;;;13.00;99.90;;;;;;4944003;29;20228;-75
2023/11/01 10:38:47;;;;;;;3.97;2.20;;;13.00;99.90;;;;;;4929531;29;20194;-76
2023/11/01 10:41:14;;;;;;;4.07;2.10;;;13.10;99.90;;;;;;4914679;29;20865;-73
2023/11/01 10:43:40;;;;;;;3.77;1.93;;;13.20;99.90;;;;;;4913931;29;20470;-75
2023/11/01 10:46:07;;;;;;;2.90;1.90;;;13.40;99.90;;;;;;4915677;29;20790;-76
2023/11/01 10:48:33;;;;;;;4.60;2.67;;;13.60;99.90;;;;;;4913327;29;20179;-74
2023/11/01 10:50:59;;;;;;;6.40;1.90;;;13.70;99.90;;;;;;4935169;29;20532;-77
2023/11/01 10:53:25;;;;;;;5.10;2.30;;;13.90;99.90;;;;;;4908953;29;20415;-76
2023/11/01 10:55:52;;;;;;;3.43;1.73;;;14.00;99.90;;;;;;4925642;29;20222;-76
2023/11/01 10:58:24;;;;;;;4.97;1.77;;;14.10;99.90;;;;;;4901393;29;20464;-75
2023/11/01 11:01:20;;;;;;;6.03;2.23;;;14.20;99.90;;;;;;4912316;29;20470;-77
2023/11/01 11:03:50;;;;;;;3.30;1.47;;;14.40;99.90;;;;;;4936757;29;20475;-74
2023/11/01 11:06:25;;;;;;;5.13;1.60;;;14.60;99.90;;;;;;4934087;29;20458;-74
2023/11/01 11:09:22;;;;;;;4.30;2.20;;;14.80;99.90;;;;;;4902874;29;20406;-75
2023/11/01 11:12:18;;;;;;;4.73;1.60;;;14.90;99.90;;;;;;4928527;29;20435;-77
2023/11/01 11:14:51;;;;;;;3.57;1.80;;;15.10;99.90;;;;;;4908729;29;20449;-75
2023/11/01 11:17:27;;;;;;;4.77;1.70;;;15.30;99.90;;;;;;4931485;29;20722;-76
2023/11/01 11:20:05;;;;;;;3.83;2.23;;;15.40;99.90;;;;;;4929804;29;20939;-76
2023/11/01 11:23:02;;;;;;;3.43;1.70;;;15.40;99.90;;;;;;4942646;29;20473;-76
2023/11/01 11:25:37;;;;;;;4.90;1.57;;;15.40;99.90;;;;;;4930480;29;20750;-77
2023/11/01 11:28:09;;;;;;;6.07;1.93;;;15.30;99.90;;;;;;4918569;29;20502;-75
2023/11/01 11:30:47;;;;;;;7.73;2.47;;;15.20;99.90;;;;;;4897927;29;20802;-77
2023/11/01 11:33:16;;;;;;;7.43;1.73;;;15.20;99.90;;;;;;4936697;29;20433;-75
2023/11/01 11:35:42;;;;;;;3.73;1.93;;;15.20;99.90;;;;;;4945844;29;20446;-74
2023/11/01 11:38:33;;;;;;;4.73;1.70;;;15.30;99.90;;;;;;4914620;29;20426;-78
2023/11/01 11:41:25;;;;;;;3.93;2.43;;;15.40;99.90;;;;;;4910438;29;20432;-75
2023/11/01 11:44:07;;;;;;;6.00;2.43;;;15.40;99.90;;;;;;4909270;29;20484;-75
2023/11/01 11:46:59;;;;;;;5.17;2.30;;;15.30;99.90;;;;;;4931745;29;20418;-76
2023/11/01 11:49:27;;;;;;;5.90;2.70;;;15.30;99.90;;;;;;4931918;29;20905;-75
2023/11/01 11:52:02;;;;;;;3.70;1.97;;;15.30;99.90;;;;;;4930274;29;20846;-75
2023/11/01 11:54:32;;;;;;;6.70;2.03;;;15.40;99.90;;;;;;4938408;29;20504;-75
2023/11/01 11:57:07;;;;;;;8.03;2.20;;;15.40;99.90;;;;;;4943296;29;20440;-78
2023/11/01 11:59:34;;;;;;;9.20;2.10;;;15.40;99.90;;;;;;4947566;29;20414;-76
2023/11/01 12:02:12;;;;;;;4.63;1.80;;;15.50;99.90;;;;;;4940664;29;20491;-75
2023/11/01 12:04:42;;;;;;;9.67;2.60;;;15.50;99.90;;;;;;4908566;29;20456;-76
2023/11/01 12:07:15;;;;;;;11.73;2.50;;;15.50;99.90;;;;;;4934051;29;20919;-75
2023/11/01 12:09:47;;;;;;;5.90;2.07;;;15.60;99.90;;;;;;4896154;29;20456;-76
2023/11/01 12:12:13;;;;;;;6.30;2.47;;;15.60;99.90;;;;;;4921686;29;20475;-73
2023/11/01 12:14:41;;;;;;;7.40;1.97;;;15.60;99.90;;;;;;4933208;29;20461;-78
2023/11/01 12:17:07;;;;;;;3.50;1.77;;;15.70;99.90;;;;;;4912449;29;20429;-77
2023/11/01 12:19:43;;;;;;;5.00;1.83;;;15.70;99.90;;;;;;4909259;29;20481;-77
2023/11/01 12:22:09;;;;;;;10.00;2.30;;;15.70;99.90;;;;;;4922733;29;20275;-77
2023/11/01 12:24:38;;;;;;;7.90;2.00;;;15.70;99.90;;;;;;4940043;29;20514;-75
2023/11/01 12:27:13;;;;;;;7.03;2.37;;;15.70;99.90;;;;;;4933319;29;20426;-76
2023/11/01 12:29:41;;;;;;;6.50;2.40;;;15.70;99.90;;;;;;4918171;29;20457;-76
2023/11/01 12:32:27;;;;;;;5.60;1.97;;;15.70;99.90;;;;;;4931346;29;20491;-75
2023/11/01 12:34:55;;;;;;;4.33;1.80;;;15.70;99.90;;;;;;4917746;29;20461;-75
2023/11/01 12:37:24;;;;;;;2.77;1.50;;;15.80;99.90;;;;;;4944183;29;20472;-76
2023/11/01 12:40:10;;;;;;;7.40;1.60;;;15.70;99.90;;;;;;4913083;29;20428;-80
2023/11/01 12:42:43;;;;;;;7.67;1.77;;;15.70;99.90;;;;;;4939804;29;20486;-75
2023/11/01 12:45:10;;;;;;;5.00;1.90;;;15.60;99.90;;;;;;4932737;29;20518;-77
2023/11/01 12:47:52;;;;;;;5.20;1.57;;;15.60;99.90;;;;;;4922483;29;20426;-75